Michigan Logo

Grand Blanc, MI Single Family Real Estate Listings

165 Total Real Estate Listings * Click on table heading to sort
Date Posted Property Type Style Address Price Living Area Lot Size Price/Sq Ft.
2018-05-27 Single Family 424 Union Grand Blanc, MI 48439 $189,900 2,314 sq. ft. 6,098 sq. ft. $82
2018-05-27 Single Family Colonial 1330 Park Ridge Pointe Grand Blanc, MI 48439 $259,900 2,173 sq. ft. 12,632 sq. ft. $120
2018-05-27 Single Family 5195 Meadow Crest Cir Grand Blanc, MI 48442 $169,900 1,746 sq. ft. 5,663 sq. ft. $97
2018-05-26 Single Family Ranch 5197 Cypress Circle Grand Blanc, MI 48439 $174,900 1,240 sq. ft. 11,761 sq. ft. $141
2018-05-25 Single Family Colonial 5133 Spinning Wheel Grand Blanc, MI 48439 $149,900 1,555 sq. ft. $96
2018-05-25 Single Family Colonial 12244 Wellington Street Grand Blanc, MI 48439 $294,000 2,850 sq. ft. 24,394 sq. ft. $103
2018-05-25 Single Family Contemporary 9215 Village Woods Grand Blanc, MI 48439 $349,999 3,100 sq. ft. 13,068 sq. ft. $113
2018-05-25 Single Family Ranch 5511 Independence Colony Road Grand Blanc, MI 48439 $149,900 1,578 sq. ft. 13,939 sq. ft. $95
2018-05-24 Single Family Colonial 10114 Fieldway Trail Grand Blanc, MI 48442 $169,900 1,746 sq. ft. 4,356 sq. ft. $97
2018-05-24 Single Family Ranch 1244 Reid Road Grand Blanc, MI 48439 $179,900 1,393 sq. ft. 12,632 sq. ft. $129
2018-05-23 Single Family 8263 Pine Hollow Trail Grand Blanc, MI 48439 $849,000 4,144 sq. ft. 17,424 sq. ft. $205
2018-05-23 Single Family Ranch 2514 Bandon Drive Grand Blanc, MI 48439 $154,900 1,412 sq. ft. 22,651 sq. ft. $110
2018-05-23 Single Family Ranch 3191 Perry Court Grand Blanc, MI 48439 $149,900 1,478 sq. ft. 18,731 sq. ft. $101
2018-05-23 Single Family Raised Ranch 317 Mcfarland Grand Blanc, MI 48439 $109,900 864 sq. ft. 11,326 sq. ft. $127
2018-05-23 Single Family Colonial 6028 Greenwich Lane Grand Blanc, MI 48439 $214,900 2,100 sq. ft. 37,462 sq. ft. $102
2018-05-23 Single Family Colonial 2523 Pollock Road Grand Blanc, MI 48439 $219,900 2,225 sq. ft. 36,155 sq. ft. $99
2018-05-23 Single Family Colonial 5111 Treehill Road Grand Blanc, MI 48439 $189,900 2,827 sq. ft. 20,038 sq. ft. $67
2018-05-22 Single Family Raised Ranch 5606 Chatham Grand Blanc, MI 48439 $265,000 1,803 sq. ft. 17,424 sq. ft. $147
2018-05-22 Single Family Colonial 6077 Big Rock Grand Blanc, MI 48439 $220,000 1,624 sq. ft. 16,117 sq. ft. $135
2018-05-22 Single Family 6307 Bridle Path Grand Blanc, MI 48439 $563,499 3,220 sq. ft. 36,155 sq. ft. $175
2018-05-22 Single Family 6312 Bridle Path Grand Blanc, MI 48439 $601,900 3,440 sq. ft. 30,492 sq. ft. $175
2018-05-22 Single Family Contemporary 9143 Hidden Oaks Drive Grand Blanc, MI 48439 $349,900 3,001 sq. ft. 20,473 sq. ft. $117
2018-05-21 Single Family Contemporary 5064 Meadow Crest Grand Blanc, MI 48442 $167,900 1,800 sq. ft. 6,534 sq. ft. $93
2018-05-21 Single Family Raised Ranch 5145 Glen Cove Grand Blanc, MI 48507 $129,999 1,196 sq. ft. 23,522 sq. ft. $109
2018-05-21 Single Family Colonial 1570 Kings Carriage Road Grand Blanc, MI 48439 $217,300 2,478 sq. ft. 16,553 sq. ft. $88
2018-05-21 Single Family Colonial 11406 Woodbridge Grand Blanc, MI 48439 $219,500 2,356 sq. ft. 17,424 sq. ft. $93
2018-05-21 Single Family Colonial 8435 Cranbrook Grand Blanc, MI 48439 $339,500 2,904 sq. ft. 22,216 sq. ft. $117
2018-05-21 Single Family 6337 Sanctuary Pointe Grand Blanc, MI 48439 $189,900 1,583 sq. ft. 35,719 sq. ft. $120
2018-05-21 Single Family Colonial 4100 Big Rock Grand Blanc, MI 48439 $219,900 1,644 sq. ft. 20,909 sq. ft. $134
2018-05-20 Single Family Contemporary; Ranch 10141 Golfside Drive Grand Blanc, MI 48439 $326,000 1,817 sq. ft. 8,276 sq. ft. $179
2018-05-18 Single Family Ranch 6425 Smoke Rise Trail Grand Blanc, MI 48439 $177,900 1,788 sq. ft. 15,682 sq. ft. $100
2018-05-18 Single Family Colonial 8425 Grovemont Court Grand Blanc, MI 48439 $759,000 4,170 sq. ft. 21,780 sq. ft. $182
2018-05-17 Single Family Colonial 5123 Candlewood Drive Grand Blanc, MI 48439 $274,900 2,547 sq. ft. 21,344 sq. ft. $108
2018-05-17 Single Family Ranch 8424 Forest Glen Drive Grand Blanc, MI 48439 $299,950 1,830 sq. ft. 10,890 sq. ft. $164
2018-05-17 Single Family Contemporary 719 Morningside Grand Blanc, MI 48439 $224,900 2,076 sq. ft. 15,682 sq. ft. $108
2018-05-17 Single Family Contemporary 5827 Woodfield Parkway Grand Blanc, MI 48439 $279,900 3,198 sq. ft. 21,344 sq. ft. $88
2018-05-16 Single Family Colonial 6518 Wailea Grand Blanc, MI 48439 $234,900 1,904 sq. ft. 16,553 sq. ft. $123
2018-05-16 Single Family 702 Morningside Drive Grand Blanc, MI 48439 $299,000 3,012 sq. ft. 23,087 sq. ft. $99
2018-05-16 Single Family Ranch 8461 Forest Glen Drive Grand Blanc, MI 48439 $329,900 1,771 sq. ft. 12,197 sq. ft. $186
2018-05-15 Single Family Colonial 8533 Old Plank Grand Blanc, MI 48439 $229,000 2,263 sq. ft. 20,473 sq. ft. $101
2018-05-14 Single Family Contemporary 4577 Brighton Circle Grand Blanc, MI 48439 $317,572 2,934 sq. ft. 18,731 sq. ft. $108
2018-05-14 Single Family Colonial 6077 Amber Lane Grand Blanc, MI 48439 $374,999 2,651 sq. ft. $141
2018-05-14 Single Family Raised Ranch 11967 Riverbend Grand Blanc, MI 48439 $139,900 1,448 sq. ft. 11,761 sq. ft. $97
2018-05-14 Single Family Tudor 876 Boutell Drive Grand Blanc, MI 48439 $249,000 2,538 sq. ft. 20,473 sq. ft. $98
2018-05-14 Single Family Ranch 1189 Ransom Drive Grand Blanc, MI 48507 $129,900 1,200 sq. ft. 20,473 sq. ft. $108
2018-05-12 Single Family Colonial 8366 Sherwood Grand Blanc, MI 48439 $238,900 2,140 sq. ft. 9,583 sq. ft. $112
2018-05-11 Single Family Contemporary 8314 Sherwood Grand Blanc, MI 48439 $229,900 2,111 sq. ft. 10,019 sq. ft. $109
2018-05-11 Single Family Colonial 6072 Rolling Green Drive Grand Blanc, MI 48439 $269,900 2,855 sq. ft. 20,473 sq. ft. $95
2018-05-11 Single Family Tudor 8278 Pine Hollow Grand Blanc, MI 48439 $614,999 3,295 sq. ft. 30,928 sq. ft. $187
2018-05-10 Single Family Contemporary 7157 Westminster Circle Grand Blanc, MI 48439 $265,000 2,588 sq. ft. 10,890 sq. ft. $102
2018-05-10 Single Family Ranch 6250 Crystal Downs Drive Grand Blanc, MI 48439 $331,075 2,085 sq. ft. $159
2018-05-10 Single Family Ranch 9340 Pine Valley Drive Grand Blanc, MI 48439 $403,040 2,505 sq. ft. $161
2018-05-10 Single Family Raised Ranch 1207 Windsor Grand Blanc, MI 48507 $169,000 1,644 sq. ft. 20,473 sq. ft. $103
2018-05-10 Single Family Ranch 11718 Bush Court Grand Blanc, MI 48439 $150,000 1,100 sq. ft. 9,148 sq. ft. $136
2018-05-10 Single Family Colonial 9383 Oakmont Drive Grand Blanc, MI 48439 $390,000 2,938 sq. ft. 24,829 sq. ft. $133
2018-05-09 Single Family Colonial 7173 Westminster Circle Grand Blanc, MI 48439 $265,000 2,285 sq. ft. 18,295 sq. ft. $116
2018-05-09 Single Family Colonial 5175 Redwood Lane Grand Blanc, MI 48439 $257,900 1,870 sq. ft. $138
2018-05-09 Single Family Colonial 8430 Parkside Drive Grand Blanc, MI 48439 $265,900 2,381 sq. ft. 20,473 sq. ft. $112
2018-05-09 Single Family Ranch 5390 Robin Drive Grand Blanc, MI 48439 $93,000 1,118 sq. ft. 22,651 sq. ft. $83
2018-05-08 Single Family Colonial 7021 Marigold Court Grand Blanc, MI 48439 $264,900 2,075 sq. ft. $128
2018-05-07 Single Family Colonial 6490 Carriage Hill Drive Grand Blanc, MI 48439 $799,900 5,756 sq. ft. 42,253 sq. ft. $139
2018-05-07 Single Family Contemporary 6240 Kings Scepter Road Grand Blanc, MI 48439 $239,900 2,581 sq. ft. 16,117 sq. ft. $93
2018-05-06 Single Family Contemporary 9057 Huntsman Grand Blanc, MI 48439 $1,195,000 5,376 sq. ft. 135,036 sq. ft. $222
2018-05-06 Single Family 5499 Liberty Bell Grand Blanc, MI 48439 $159,900 1,254 sq. ft. 12,197 sq. ft. $128
2018-05-06 Single Family Raised Ranch 1064 Sarah Grand Blanc, MI 48439 $140,000 1,460 sq. ft. 23,522 sq. ft. $96
2018-05-06 Single Family Manufactured With Land; Raised Ranch 2421 Gibson Grand Blanc, MI 48439 $99,900 1,272 sq. ft. 21,344 sq. ft. $79
2018-05-06 Single Family Bungalow 5379 Fenton Road Grand Blanc, MI 48507 $119,900 1,495 sq. ft. 34,412 sq. ft. $80
2018-05-06 Single Family Ranch 3059 Sloan Heights Grand Blanc, MI 48507 $74,900 700 sq. ft. 4,356 sq. ft. $107
2018-04-27 Single Family Colonial 8485 Grand View Drive Grand Blanc, MI 48439 $329,000 3,175 sq. ft. 22,651 sq. ft. $104
2018-04-26 Single Family Colonial 1461 Platte Drive Grand Blanc, MI 48439 $249,900 1,870 sq. ft. 14,810 sq. ft. $134
2018-04-26 Single Family Ranch 9536 Pine Valley Drive Grand Blanc, MI 48439 $284,900 1,660 sq. ft. $172
2018-04-24 Single Family 9732 Burning Tree Drive Grand Blanc, MI 48439 $860,000 5,126 sq. ft. 20,473 sq. ft. $168
2018-04-21 Single Family Ranch 9347 Pebble Beach Lane Grand Blanc, MI 48439 $310,000 1,785 sq. ft. $174
2018-04-19 Single Family 7123 Glenmeadow Court Grand Blanc, MI 48439 $239,900 1,870 sq. ft. $128
2018-04-18 Single Family 5075 Old Haverhill Road Grand Blanc, MI 48439 $264,900 2,602 sq. ft. 19,602 sq. ft. $102
2018-04-16 Single Family Raised Ranch 1063 Lincoln Grand Blanc, MI 48507 $115,900 920 sq. ft. 10,019 sq. ft. $126
2018-04-16 Single Family Contemporary 868 Boutell Drive Grand Blanc, MI 48439 $285,900 2,849 sq. ft. 27,878 sq. ft. $100
2018-04-13 Single Family Colonial 6119 Kings Scepter Grand Blanc, MI 48439 $264,900 2,784 sq. ft. 12,632 sq. ft. $95
2018-04-12 Single Family Ranch 3396 Baldwin Road Grand Blanc, MI 48439 $499,000 838 sq. ft. 43,560 sq. ft. $595
2018-04-11 Single Family Ranch 7139 Glenmeadow Court Grand Blanc, MI 48439 $209,900 2,040 sq. ft. $103
2018-04-09 Single Family Colonial 7044 Wildflower Court Grand Blanc, MI 48439 $259,900 1,870 sq. ft. $139
2018-04-05 Single Family Colonial 5149 High Oaks Grand Blanc, MI 48439 $210,900 2,100 sq. ft. 19,602 sq. ft. $100
2018-04-03 Single Family Raised Ranch 6317 Bridle Path Grand Blanc, MI 48439 $599,900 3,431 sq. ft. 44,867 sq. ft. $175
2018-04-03 Single Family Raised Ranch 8461 Forest Glen Grand Blanc, MI 48439 $329,900 1,771 sq. ft. 12,197 sq. ft. $186
2018-04-03 Single Family Colonial 7043 Wildflower Grand Blanc, MI 48439 $341,900 2,880 sq. ft. 10,019 sq. ft. $119
2018-04-03 Single Family Colonial 7032 Marigold Grand Blanc, MI 48439 $324,900 2,880 sq. ft. 11,761 sq. ft. $113
2018-04-03 Single Family Colonial 1564 Kings Carriage Grand Blanc, MI 48439 $309,900 3,436 sq. ft. 16,117 sq. ft. $90
2018-04-03 Single Family 6324 Bridle Path Grand Blanc, MI 48439 $484,399 2,774 sq. ft. 28,314 sq. ft. $175
2018-04-03 Single Family Raised Ranch 3274 Cook Grand Blanc, MI 48439 $227,000 1,784 sq. ft. 20,038 sq. ft. $127
2018-04-03 Single Family Colonial 4157 Oak Grand Blanc, MI 48439 $277,900 2,367 sq. ft. 10,454 sq. ft. $117
2018-04-03 Single Family Colonial 6356 Kings Knoll Grand Blanc, MI 48439 $279,900 3,642 sq. ft. 15,246 sq. ft. $77
2018-04-03 Single Family Raised Ranch 7045 Wildflower Grand Blanc, MI 48439 $267,500 2,100 sq. ft. 10,454 sq. ft. $127
2018-04-03 Single Family Raised Ranch 6075 Valerian Grand Blanc, MI 48439 $247,900 1,710 sq. ft. 20,909 sq. ft. $145
2018-04-03 Single Family Raised Ranch 7030 Marigold Grand Blanc, MI 48439 $244,900 1,710 sq. ft. 11,326 sq. ft. $143
2018-04-03 Single Family Raised Ranch 7033 Marigold Grand Blanc, MI 48439 $269,900 2,100 sq. ft. 10,454 sq. ft. $129
2018-04-03 Single Family Raised Ranch 7041 Wildflower Grand Blanc, MI 48439 $249,900 1,710 sq. ft. 10,019 sq. ft. $146
2018-04-03 Single Family Colonial 6074 Grove Grand Blanc, MI 48439 $159,000 1,940 sq. ft. 45,738 sq. ft. $82
2018-04-03 Single Family Modular Home; Raised Ranch 2375 Gibson Grand Blanc, MI 48439 $160,000 2,014 sq. ft. 51,401 sq. ft. $79
2018-04-02 Single Family 6163 Saddle Creek Grand Blanc, MI 48439 $1,247,870 4,934 sq. ft. 38,768 sq. ft. $253
2018-04-02 Single Family Colonial 9170 Hidden Oaks Grand Blanc, MI 48439 $329,900 2,997 sq. ft. 16,553 sq. ft. $110
2018-04-01 Single Family Tudor 1345 Kings Pointe Road Grand Blanc, MI 48439 $349,900 3,164 sq. ft. 20,909 sq. ft. $111
2018-03-30 Single Family Colonial 12128 Francesca Dr Grand Blanc, MI 48439 $199,900 2,662 sq. ft. 14,810 sq. ft. $75
2018-03-14 Single Family 8345 Warwick Groves Court Grand Blanc, MI 48439 $950,000 5,110 sq. ft. $186
2018-03-14 Single Family Colonial 2321 Willow Lane Grand Blanc, MI 48439 $324,900 2,626 sq. ft. $124
2018-03-14 Single Family Ranch 11423 Davis Street Grand Blanc, MI 48439 $111,900 1,352 sq. ft. 13,068 sq. ft. $83
2018-03-08 Single Family Ranch 2341 Morton Avenue Grand Blanc, MI 48507 $109,900 1,252 sq. ft. 10,454 sq. ft. $88
2018-03-02 Single Family Colonial 6186 Kings Crown Road Grand Blanc, MI 48439 $219,900 2,509 sq. ft. 19,602 sq. ft. $88
2018-03-01 Single Family Cape Cod 5482 Lucille Street Grand Blanc, MI 48439 $83,900 1,240 sq. ft. 7,841 sq. ft. $68
2018-02-22 Single Family Colonial 5564 Old Franklin Road Grand Blanc, MI 48439 $184,900 1,740 sq. ft. 13,504 sq. ft. $106
2018-02-19 Single Family Manufactured With Land 2417 Gibson Road Grand Blanc, MI 48439 $109,000 1,590 sq. ft. 21,344 sq. ft. $69
2018-02-13 Single Family Colonial 5233 Mccandlish Road Grand Blanc, MI 48439 $299,000 3,000 sq. ft. 91,912 sq. ft. $100
2018-02-01 Single Family Colonial 4308 Newark Circle Grand Blanc, MI 48439 $229,500 2,032 sq. ft. 13,939 sq. ft. $113
2018-01-19 Single Family Colonial 4454 Pebble Creek Boulevard Grand Blanc, MI 48439 $269,900 2,393 sq. ft. $113
2018-01-16 Single Family Colonial 5024 Candlewood Drive Grand Blanc, MI 48439 $228,000 2,894 sq. ft. 24,394 sq. ft. $79
2018-01-16 Single Family Ranch 4111 Hill Road Grand Blanc, MI 48439 $69,900 1,128 sq. ft. 261,360 sq. ft. $62
2018-01-08 Single Family Ranch 2420 Lincoln Manor Drive Grand Blanc, MI 48507 $65,000 768 sq. ft. 5,227 sq. ft. $85
2018-01-05 Single Family Ranch 9399 St Andrews Drive Grand Blanc, MI 48439 $310,490 1,792 sq. ft. $173
2018-01-05 Single Family Ranch 6212 Merion Lane Grand Blanc, MI 48439 $313,500 1,785 sq. ft. $176
2017-12-15 Single Family Modular Home 2375 Gibson Grand Blanc, MI 48439 $160,000 2,014 sq. ft. $79
2017-12-11 Single Family Colonial 7051 Wildflower Court Grand Blanc, MI 48439 $291,900 2,393 sq. ft. $122
2017-11-06 Single Family Colonial 6212 Tanzanite Court Grand Blanc, MI 48439 $314,900 2,556 sq. ft. 14,375 sq. ft. $123
2017-10-02 Single Family 6289 Bridle Path Grand Blanc, MI 48439 $779,500 4,456 sq. ft. 45,738 sq. ft. $175
2017-10-02 Single Family 6301 Bridle Path Grand Blanc, MI 48439 $804,900 4,600 sq. ft. 64,033 sq. ft. $175
2017-10-02 Single Family 6275 Bridle Path Grand Blanc, MI 48439 $941,299 5,385 sq. ft. 53,143 sq. ft. $175
2017-10-02 Single Family 6296 Bridle Path Grand Blanc, MI 48439 $606,999 3,470 sq. ft. 29,185 sq. ft. $175
2017-10-02 Single Family 6326 Withers Way Court Grand Blanc, MI 48439 $619,199 3,546 sq. ft. 38,333 sq. ft. $175
2017-10-02 Single Family 6131 Saddle Creek Grand Blanc, MI 48439 $620,199 3,550 sq. ft. $175
2017-10-02 Single Family 8012 Bridle Path Court Grand Blanc, MI 48439 $637,299 3,642 sq. ft. 35,284 sq. ft. $175
2017-10-02 Single Family 6290 Bridle Path Grand Blanc, MI 48439 $637,299 3,642 sq. ft. 30,056 sq. ft. $175
2017-10-02 Single Family 8001 Bridle Path Court Grand Blanc, MI 48439 $680,900 3,891 sq. ft. 39,640 sq. ft. $175
2017-10-02 Single Family 8000 Bridle Path Court Grand Blanc, MI 48439 $699,125 3,995 sq. ft. 28,314 sq. ft. $175
2017-10-02 Single Family 6284 Bridle Path Grand Blanc, MI 48439 $755,900 4,320 sq. ft. 31,799 sq. ft. $175
2017-10-02 Single Family 17070 Kings Fairway Lane Grand Blanc, MI 48439 $527,750 3,140 sq. ft. 39,640 sq. ft. $168
2017-10-02 Single Family 6300 Withers Way Court Grand Blanc, MI 48439 $539,799 3,085 sq. ft. 40,075 sq. ft. $175
2017-10-02 Single Family Ranch 6281 Bridle Path Grand Blanc, MI 48439 $559,900 3,200 sq. ft. 37,897 sq. ft. $175
2017-10-02 Single Family 6304 Withers Way Court Grand Blanc, MI 48439 $599,900 3,546 sq. ft. 50,094 sq. ft. $169
2017-10-02 Single Family 6330 Bridle Path Grand Blanc, MI 48439 $519,199 2,967 sq. ft. 28,314 sq. ft. $175
2017-10-02 Single Family Colonial 8114 Vassar Road Grand Blanc, MI 48439 $499,900 2,881 sq. ft. 43,560 sq. ft. $174
2017-10-02 Single Family Colonial 8124 Vassar Road Grand Blanc, MI 48439 $499,900 2,991 sq. ft. 38,768 sq. ft. $167
2017-10-02 Single Family 6336 Bridle Path Grand Blanc, MI 48439 $489,900 2,800 sq. ft. 32,234 sq. ft. $175
2017-10-02 Single Family Ranch 8015 Bridle Path Court Grand Blanc, MI 48439 $499,900 3,000 sq. ft. 35,719 sq. ft. $167
2017-09-27 Single Family 6320 Withers Way Court Grand Blanc, MI 48439 $487,900 2,793 sq. ft. 35,284 sq. ft. $175
2017-08-28 Single Family 12235 Worthington Court Grand Blanc, MI 48439 $369,900 2,100 sq. ft. $176
2017-05-09 Single Family Colonial 2495 Lindsay Lane Grand Blanc, MI 48439 $306,530 2,400 sq. ft. $128
2017-03-30 Single Family 6308 Withers Way Court Grand Blanc, MI 48439 $583,900 3,340 sq. ft. 34,848 sq. ft. $175
2017-03-30 Single Family 6311 Withers Way Court Grand Blanc, MI 48439 $538,199 3,080 sq. ft. 40,946 sq. ft. $175
2017-03-30 Single Family 6319 Withers Way Court Grand Blanc, MI 48439 $557,199 3,190 sq. ft. 57,064 sq. ft. $175
2017-03-30 Single Family 6314 Withers Way Court Grand Blanc, MI 48439 $499,900 2,991 sq. ft. 29,185 sq. ft. $167
2017-03-30 Single Family 8035 Withers Way Grand Blanc, MI 48439 $654,900 3,744 sq. ft. 39,640 sq. ft. $175
2017-03-30 Single Family 8040 Withers Way Grand Blanc, MI 48439 $654,900 3,096 sq. ft. 36,155 sq. ft. $212
2017-03-30 Single Family 6303 Withers Way Court Grand Blanc, MI 48439 $799,900 4,604 sq. ft. 38,768 sq. ft. $174
2017-03-30 Single Family Ranch 8006 Bridle Path Court Grand Blanc, MI 48439 $549,500 3,140 sq. ft. 56,192 sq. ft. $175
2017-03-30 Single Family 8007 Bridle Path Court Grand Blanc, MI 48439 $541,799 3,096 sq. ft. 33,977 sq. ft. $175
2017-03-30 Single Family 6318 Bridle Path Grand Blanc, MI 48439 $522,900 2,991 sq. ft. 28,750 sq. ft. $175
2017-03-30 Single Family 6324 Bridle Path Grand Blanc, MI 48439 $484,399 2,774 sq. ft. 28,314 sq. ft. $175
2017-03-30 Single Family 6307 Bridle Path Grand Blanc, MI 48439 $563,499 3,220 sq. ft. 36,155 sq. ft. $175
2017-03-30 Single Family 6312 Bridle Path Grand Blanc, MI 48439 $601,900 3,440 sq. ft. 30,492 sq. ft. $175
2017-03-30 Single Family Ranch 6317 Bridle Path Grand Blanc, MI 48439 $599,900 3,431 sq. ft. 44,867 sq. ft. $175
2017-03-30 Single Family 6130 Saddle Creek Court Grand Blanc, MI 48439 $645,750 3,850 sq. ft. 43,560 sq. ft. $168
2017-03-30 Single Family 8284 Pine Hollow Trail Grand Blanc, MI 48439 $697,500 4,600 sq. ft. 29,185 sq. ft. $152
2017-03-30 Single Family 6295 Canter Creek Trail Grand Blanc, MI 48439 $575,550 3,450 sq. ft. 35,284 sq. ft. $167
2016-10-04 Single Family Colonial 4448 Kristina Grand Blanc, MI 48439 $240,500 2,038 sq. ft. 12,197 sq. ft. $118
2015-06-29 Single Family Colonial 000 Forest Gate Court Grand Blanc, MI 48439 $500,000 3,050 sq. ft. 62,726 sq. ft. $164
2015-06-29 Single Family Colonial 0000 Golden Gate Boulevard Grand Blanc, MI 48439 $450,000 3,000 sq. ft. 41,818 sq. ft. $150
2015-06-29 Single Family Colonial 000 Golden Gate Boulevard Grand Blanc, MI 48439 $486,000 3,450 sq. ft. 41,382 sq. ft. $141